createdAt,value
2022-09-04T00:00:24.549Z,90.40
2022-09-04T00:00:56.153Z,90.40
2022-09-04T00:01:27.673Z,90.40
2022-09-04T00:01:59.174Z,90.40
2022-09-04T00:02:30.693Z,90.40
2022-09-04T00:03:02.209Z,90.40
2022-09-04T00:03:33.778Z,90.40
2022-09-04T00:04:05.442Z,90.40
2022-09-04T00:04:37.178Z,90.40
2022-09-04T00:05:08.935Z,90.60
2022-09-04T00:05:40.529Z,90.40
2022-09-04T00:06:12.041Z,90.40
2022-09-04T00:06:43.572Z,90.40
2022-09-04T00:07:15.067Z,90.40
2022-09-04T00:07:46.565Z,90.40
2022-09-04T00:08:18.088Z,90.40
2022-09-04T00:08:49.638Z,90.30
2022-09-04T00:09:21.806Z,90.40
2022-09-04T00:09:53.307Z,90.40
2022-09-04T00:10:24.855Z,90.40
2022-09-04T00:10:56.368Z,90.40
2022-09-04T00:11:27.873Z,90.40
2022-09-04T00:11:59.390Z,90.40
2022-09-04T00:12:30.897Z,90.40
2022-09-04T00:13:02.401Z,90.40
2022-09-04T00:13:33.901Z,90.40
2022-09-04T00:14:05.403Z,90.40
2022-09-04T00:14:36.934Z,90.40
2022-09-04T00:15:08.453Z,90.40
2022-09-04T00:15:39.992Z,90.40
2022-09-04T00:16:11.574Z,90.40
2022-09-04T00:16:43.353Z,90.40
2022-09-04T00:17:14.969Z,90.40
2022-09-04T00:17:46.480Z,90.40
2022-09-04T00:18:18.063Z,90.40
2022-09-04T00:18:49.577Z,90.40
2022-09-04T00:19:21.085Z,90.40
2022-09-04T00:19:52.580Z,90.40
2022-09-04T00:20:24.098Z,90.40
2022-09-04T00:20:56.130Z,90.40
2022-09-04T00:21:27.632Z,90.40
2022-09-04T00:21:59.137Z,90.40
2022-09-04T00:22:30.641Z,90.40
2022-09-04T00:23:02.140Z,90.40
2022-09-04T00:23:33.705Z,90.40
2022-09-04T00:24:05.204Z,90.40
2022-09-04T00:24:36.738Z,90.40
2022-09-04T00:25:08.284Z,90.30
2022-09-04T00:25:39.799Z,90.30
2022-09-04T00:26:11.306Z,90.30
2022-09-04T00:26:42.837Z,90.30
2022-09-04T00:27:14.342Z,90.30
2022-09-04T00:27:45.870Z,90.30
2022-09-04T00:28:17.394Z,90.30
2022-09-04T00:28:48.892Z,90.30
2022-09-04T00:29:20.398Z,90.60
2022-09-04T00:29:51.931Z,90.70
2022-09-04T00:30:23.452Z,90.30
2022-09-04T00:30:55.036Z,90.30
2022-09-04T00:31:26.610Z,90.30
2022-09-04T00:31:58.116Z,90.30
2022-09-04T00:32:29.626Z,90.30
2022-09-04T00:33:01.142Z,90.30
2022-09-04T00:33:32.644Z,90.30
2022-09-04T00:34:04.213Z,90.30
2022-09-04T00:34:35.728Z,90.30
2022-09-04T00:35:07.234Z,90.40
2022-09-04T00:35:39.405Z,90.30
2022-09-04T00:36:11.223Z,90.30
2022-09-04T00:36:45.791Z,90.30
2022-09-04T00:37:19.755Z,90.30
2022-09-04T00:37:51.273Z,90.40
2022-09-04T00:38:22.827Z,90.30
2022-09-04T00:38:54.372Z,90.30
2022-09-04T00:39:25.912Z,90.30
2022-09-04T00:39:57.539Z,90.30
2022-09-04T00:40:31.290Z,90.30
2022-09-04T00:41:03.153Z,90.30
2022-09-04T00:41:34.663Z,90.40
2022-09-04T00:42:06.170Z,90.70
2022-09-04T00:42:37.675Z,90.40
2022-09-04T00:43:09.182Z,90.30
2022-09-04T00:43:40.688Z,90.30
2022-09-04T00:44:12.190Z,90.30
2022-09-04T00:44:43.685Z,90.30
2022-09-04T00:45:16.624Z,90.30
2022-09-04T00:45:48.408Z,90.30
2022-09-04T00:46:20.024Z,90.30
2022-09-04T00:46:51.575Z,90.30
2022-09-04T00:47:23.095Z,90.40
2022-09-04T00:47:54.628Z,90.30
2022-09-04T00:48:26.146Z,90.30
2022-09-04T00:48:57.645Z,90.30
2022-09-04T00:49:29.189Z,90.30
2022-09-04T00:50:00.697Z,90.30
2022-09-04T00:50:32.202Z,90.30
2022-09-04T00:51:03.714Z,90.30
2022-09-04T00:51:35.216Z,90.30
2022-09-04T00:52:06.721Z,90.40
2022-09-04T00:52:38.229Z,90.30
2022-09-04T00:53:09.766Z,90.30
2022-09-04T00:53:41.278Z,90.30
2022-09-04T00:54:12.835Z,90.30
2022-09-04T00:54:44.345Z,90.30
2022-09-04T00:55:15.849Z,90.30
2022-09-04T00:55:47.359Z,90.20
2022-09-04T00:56:18.870Z,90.30
2022-09-04T00:56:50.384Z,90.30
2022-09-04T00:57:21.898Z,90.30
2022-09-04T00:57:53.400Z,90.20
2022-09-04T00:58:24.976Z,90.20
2022-09-04T00:58:56.580Z,90.30
2022-09-04T00:59:28.105Z,90.30
2022-09-04T00:59:59.612Z,90.30
2022-09-04T01:00:31.112Z,90.20
2022-09-04T01:01:02.716Z,90.20
2022-09-04T01:01:36.741Z,90.30
2022-09-04T01:02:10.523Z,90.30
2022-09-04T01:02:42.127Z,90.30
2022-09-04T01:03:13.658Z,90.20
2022-09-04T01:03:45.175Z,90.30
2022-09-04T01:04:16.682Z,90.30
2022-09-04T01:04:48.300Z,90.30
2022-09-04T01:05:20.070Z,90.30
2022-09-04T01:05:51.581Z,90.30
2022-09-04T01:06:23.086Z,90.30
2022-09-04T01:06:55.589Z,90.30
2022-09-04T01:07:27.110Z,90.30
2022-09-04T01:07:58.619Z,90.30
2022-09-04T01:08:30.158Z,90.30
2022-09-04T01:09:01.656Z,90.30
2022-09-04T01:09:33.324Z,90.30
2022-09-04T01:10:04.840Z,90.30
2022-09-04T01:10:36.532Z,90.30
2022-09-04T01:11:08.041Z,90.30
2022-09-04T01:11:39.548Z,90.30
2022-09-04T01:12:11.074Z,90.30
2022-09-04T01:12:42.614Z,90.30
2022-09-04T01:13:14.117Z,90.30
2022-09-04T01:13:45.621Z,90.30
2022-09-04T01:14:17.144Z,90.30
2022-09-04T01:14:52.907Z,90.30
2022-09-04T01:15:24.822Z,90.30
2022-09-04T01:15:56.331Z,90.30
2022-09-04T01:16:27.883Z,90.30
2022-09-04T01:16:59.449Z,90.30
2022-09-04T01:17:30.984Z,90.30
2022-09-04T01:18:02.481Z,90.30
2022-09-04T01:18:34.009Z,90.30
2022-09-04T01:19:05.514Z,90.30
2022-09-04T01:19:37.013Z,90.30
2022-09-04T01:20:08.510Z,90.30
2022-09-04T01:20:40.031Z,90.20
2022-09-04T01:21:12.998Z,90.20
2022-09-04T01:21:44.510Z,90.20
2022-09-04T01:22:16.018Z,90.40
2022-09-04T01:22:47.534Z,90.30
2022-09-04T01:23:19.036Z,90.30
2022-09-04T01:23:50.582Z,90.30
2022-09-04T01:24:22.110Z,90.30
2022-09-04T01:24:53.621Z,90.30
2022-09-04T01:25:25.170Z,90.30
2022-09-04T01:25:56.678Z,90.30
2022-09-04T01:26:28.184Z,90.30
2022-09-04T01:27:00.178Z,90.30
2022-09-04T01:27:31.685Z,90.30
2022-09-04T01:28:03.189Z,90.30
2022-09-04T01:28:34.699Z,90.30
2022-09-04T01:29:06.206Z,90.30
2022-09-04T01:29:37.710Z,90.30
2022-09-04T01:30:09.227Z,90.30
2022-09-04T01:30:40.760Z,90.30
2022-09-04T01:31:12.267Z,90.30
2022-09-04T01:31:43.843Z,90.30
2022-09-04T01:32:15.384Z,90.30
2022-09-04T01:32:46.886Z,90.30
2022-09-04T01:33:18.411Z,90.30
2022-09-04T01:33:49.946Z,90.40
2022-09-04T01:34:21.461Z,90.40
2022-09-04T01:34:52.974Z,90.40
2022-09-04T01:35:24.484Z,90.40
2022-09-04T01:35:56.010Z,90.40
2022-09-04T01:36:27.545Z,90.30
2022-09-04T01:36:59.049Z,90.20
2022-09-04T01:37:30.561Z,90.30
2022-09-04T01:38:02.076Z,90.30
2022-09-04T01:38:34.388Z,90.30
2022-09-04T01:39:05.923Z,90.30
2022-09-04T01:39:37.517Z,90.30
2022-09-04T01:40:09.098Z,90.30
2022-09-04T01:40:40.613Z,90.30
2022-09-04T01:41:12.118Z,90.30
2022-09-04T01:41:43.637Z,90.30
2022-09-04T01:42:15.144Z,90.30
2022-09-04T01:42:46.650Z,90.30
2022-09-04T01:43:18.273Z,90.30
2022-09-04T01:43:49.779Z,90.30
2022-09-04T01:44:21.403Z,90.30
2022-09-04T01:44:52.911Z,90.30
2022-09-04T01:45:24.516Z,90.30
2022-09-04T01:45:56.093Z,90.30
2022-09-04T01:46:27.630Z,90.30
2022-09-04T01:46:59.133Z,90.30
2022-09-04T01:47:30.639Z,90.30
2022-09-04T01:48:02.159Z,90.20
2022-09-04T01:48:33.666Z,90.20
2022-09-04T01:49:05.176Z,90.20
2022-09-04T01:49:36.744Z,90.30
2022-09-04T01:50:08.256Z,90.20
2022-09-04T01:50:39.796Z,90.20
2022-09-04T01:51:11.316Z,90.20
2022-09-04T01:51:42.818Z,90.20
2022-09-04T01:52:14.329Z,90.20
2022-09-04T01:52:45.853Z,90.30
2022-09-04T01:55:00.455Z,90.30
2022-09-04T01:55:31.955Z,90.30
2022-09-04T01:56:03.463Z,90.30
2022-09-04T01:56:34.967Z,90.30
2022-09-04T01:57:06.501Z,90.30
2022-09-04T01:57:38.026Z,90.60
2022-09-04T01:58:09.556Z,90.30
2022-09-04T01:58:41.060Z,90.30
2022-09-04T01:59:12.577Z,90.30
2022-09-04T01:59:45.315Z,90.30
2022-09-04T02:00:16.853Z,90.30
2022-09-04T02:00:49.040Z,90.30
2022-09-04T02:01:21.309Z,90.30
2022-09-04T02:01:52.995Z,90.30
2022-09-04T02:02:24.591Z,90.30
2022-09-04T02:02:56.156Z,90.30
2022-09-04T02:03:27.662Z,90.30
2022-09-04T02:03:59.165Z,90.30
2022-09-04T02:04:30.673Z,90.30
2022-09-04T02:05:06.279Z,90.30
2022-09-04T02:05:39.808Z,90.30
2022-09-04T02:06:11.330Z,90.30
2022-09-04T02:06:42.849Z,90.30
2022-09-04T02:07:14.362Z,90.30
2022-09-04T02:07:45.880Z,90.30
2022-09-04T02:08:17.402Z,90.30
2022-09-04T02:08:48.915Z,90.30
2022-09-04T02:09:20.420Z,90.30
2022-09-04T02:09:53.808Z,90.30
2022-09-04T02:10:25.596Z,90.30
2022-09-04T02:10:57.110Z,90.30
2022-09-04T02:11:28.628Z,90.30
2022-09-04T02:12:00.163Z,90.30
2022-09-04T02:12:31.667Z,90.30
2022-09-04T02:13:03.172Z,90.30
2022-09-04T02:13:34.697Z,90.30
2022-09-04T02:14:06.201Z,90.30
2022-09-04T02:14:37.705Z,90.30
2022-09-04T02:15:09.213Z,90.30
2022-09-04T02:15:40.717Z,90.20
2022-09-04T02:16:12.278Z,90.30
2022-09-04T02:16:43.907Z,90.30
2022-09-04T02:17:15.471Z,90.10
2022-09-04T02:17:46.965Z,90.10
2022-09-04T02:18:18.459Z,90.10
2022-09-04T02:18:49.992Z,90.10
2022-09-04T02:19:21.499Z,90.00
2022-09-04T02:19:53.000Z,90.00
2022-09-04T02:20:24.500Z,90.00
2022-09-04T02:20:56.001Z,90.00
2022-09-04T02:21:27.506Z,90.00
2022-09-04T02:21:59.010Z,90.00
2022-09-04T02:22:30.550Z,90.00
2022-09-04T02:23:02.157Z,90.00
2022-09-04T02:23:33.668Z,90.00
2022-09-04T02:24:05.169Z,90.00
2022-09-04T02:24:36.676Z,90.00
2022-09-04T02:25:08.177Z,90.00
2022-09-04T02:25:39.739Z,90.00
2022-09-04T02:26:11.242Z,90.00
2022-09-04T02:26:42.745Z,90.00
2022-09-04T02:27:14.244Z,90.00
2022-09-04T02:27:45.805Z,90.00
2022-09-04T02:28:17.318Z,90.00
2022-09-04T02:28:48.826Z,90.00
2022-09-04T02:29:20.327Z,90.00
2022-09-04T02:29:51.830Z,90.00
2022-09-04T02:30:23.331Z,90.40
2022-09-04T02:30:54.833Z,90.10
2022-09-04T02:31:26.408Z,90.00
2022-09-04T02:31:57.966Z,90.00
2022-09-04T02:32:29.484Z,90.10
2022-09-04T02:33:01.005Z,90.10
2022-09-04T02:33:32.525Z,90.10
2022-09-04T02:34:04.029Z,90.00
2022-09-04T02:34:35.529Z,90.00
2022-09-04T02:35:07.036Z,90.10
2022-09-04T02:35:38.532Z,90.10
2022-09-04T02:36:10.045Z,90.00
2022-09-04T02:36:41.562Z,90.00
2022-09-04T02:37:13.066Z,90.10
2022-09-04T02:37:44.565Z,90.00
2022-09-04T02:38:16.083Z,90.00
2022-09-04T02:38:47.604Z,90.10
2022-09-04T02:39:19.211Z,90.00
2022-09-04T02:39:50.793Z,90.00
2022-09-04T02:40:22.329Z,90.00
2022-09-04T02:40:54.705Z,90.00
2022-09-04T02:41:26.246Z,90.10
2022-09-04T02:41:57.774Z,90.10
2022-09-04T02:42:29.282Z,90.00
2022-09-04T02:43:00.780Z,90.00
2022-09-04T02:43:32.281Z,90.00
2022-09-04T02:44:03.806Z,90.00
2022-09-04T02:44:35.331Z,90.00
2022-09-04T02:45:06.848Z,90.00
2022-09-04T02:45:38.354Z,90.00
2022-09-04T02:46:09.881Z,89.90
2022-09-04T02:46:43.391Z,89.90
2022-09-04T02:47:15.070Z,89.90
2022-09-04T02:47:46.625Z,89.90
2022-09-04T02:48:18.183Z,90.00
2022-09-04T02:48:49.728Z,90.00
2022-09-04T02:49:21.253Z,90.00
2022-09-04T02:49:52.773Z,90.00
2022-09-04T02:50:24.265Z,90.00
2022-09-04T02:50:55.768Z,90.00
2022-09-04T02:51:27.278Z,90.00
2022-09-04T02:51:58.786Z,90.00
2022-09-04T02:52:30.489Z,89.90
2022-09-04T02:53:02.060Z,90.00
2022-09-04T02:53:33.587Z,90.00
2022-09-04T02:54:05.107Z,90.00
2022-09-04T02:54:36.634Z,90.00
2022-09-04T02:55:08.157Z,90.00
2022-09-04T02:55:39.653Z,90.00
2022-09-04T02:56:11.158Z,90.00
2022-09-04T02:56:42.660Z,89.90
2022-09-04T02:57:14.161Z,90.00
2022-09-04T02:57:45.702Z,90.00
2022-09-04T02:58:17.229Z,90.30
2022-09-04T02:58:48.728Z,90.00
2022-09-04T02:59:20.243Z,89.80
2022-09-04T02:59:51.745Z,89.90
2022-09-04T03:00:23.256Z,90.00
2022-09-04T03:00:54.803Z,89.90
2022-09-04T03:01:26.320Z,89.90
2022-09-04T03:01:57.921Z,89.80
2022-09-04T03:02:30.048Z,89.90
2022-09-04T03:03:01.604Z,90.00
2022-09-04T03:03:33.109Z,89.90
2022-09-04T03:04:04.625Z,89.90
2022-09-04T03:04:36.143Z,89.90
2022-09-04T03:05:07.660Z,90.00
2022-09-04T03:05:39.164Z,90.00
2022-09-04T03:06:10.681Z,89.90
2022-09-04T03:06:42.186Z,89.80
2022-09-04T03:07:13.707Z,89.90
2022-09-04T03:07:45.209Z,90.00
2022-09-04T03:08:16.712Z,89.80
2022-09-04T03:08:48.208Z,89.80
2022-09-04T03:09:19.771Z,89.90
2022-09-04T03:09:51.268Z,89.80
2022-09-04T03:10:22.769Z,89.90
2022-09-04T03:10:54.281Z,89.90
2022-09-04T03:11:26.331Z,90.00
2022-09-04T03:11:57.830Z,90.00
2022-09-04T03:12:29.341Z,89.80
2022-09-04T03:13:00.849Z,89.80
2022-09-04T03:13:32.349Z,89.80
2022-09-04T03:14:03.883Z,89.80
2022-09-04T03:14:35.383Z,89.80
2022-09-04T03:15:06.889Z,89.80
2022-09-04T03:15:38.391Z,89.90
2022-09-04T03:16:09.938Z,89.80
2022-09-04T03:16:41.464Z,89.80
2022-09-04T03:17:12.960Z,89.80
2022-09-04T03:17:44.467Z,89.90
2022-09-04T03:18:17.091Z,89.80
2022-09-04T03:18:48.705Z,89.80
2022-09-04T03:19:20.220Z,89.90
2022-09-04T03:19:51.727Z,89.90
2022-09-04T03:20:23.253Z,89.80
2022-09-04T03:20:54.765Z,89.80
2022-09-04T03:21:26.273Z,89.90
2022-09-04T03:21:57.790Z,89.80
2022-09-04T03:22:29.293Z,89.80
2022-09-04T03:23:00.802Z,89.90
2022-09-04T03:23:32.309Z,90.00
2022-09-04T03:24:03.817Z,89.90
2022-09-04T03:24:35.316Z,90.00
2022-09-04T03:25:06.822Z,90.00
2022-09-04T03:25:38.344Z,89.80
2022-09-04T03:26:09.858Z,89.80
2022-09-04T03:26:41.369Z,89.90
2022-09-04T03:27:12.877Z,89.80
2022-09-04T03:27:44.423Z,89.80
2022-09-04T03:28:15.929Z,89.80
2022-09-04T03:28:47.432Z,89.80
2022-09-04T03:29:18.923Z,89.80
2022-09-04T03:29:50.425Z,89.90
2022-09-04T03:30:21.952Z,89.90
2022-09-04T03:30:53.482Z,89.80
2022-09-04T03:31:25.053Z,89.80
2022-09-04T03:31:56.592Z,89.80
2022-09-04T03:32:28.095Z,89.80
2022-09-04T03:32:59.593Z,89.80
2022-09-04T03:33:31.264Z,89.80
2022-09-04T03:34:02.775Z,89.80
2022-09-04T03:34:34.278Z,89.80
2022-09-04T03:35:05.782Z,89.80
2022-09-04T03:35:37.297Z,89.80
2022-09-04T03:36:08.825Z,89.80
2022-09-04T03:36:40.341Z,89.80
2022-09-04T03:37:11.849Z,89.80
2022-09-04T03:37:43.345Z,89.90
2022-09-04T03:38:14.844Z,89.80
2022-09-04T03:38:46.354Z,89.80
2022-09-04T03:39:17.918Z,89.80
2022-09-04T03:39:49.474Z,89.80
2022-09-04T03:40:21.056Z,89.80
2022-09-04T03:40:52.562Z,89.80
2022-09-04T03:41:24.088Z,89.90
2022-09-04T03:41:55.646Z,90.00
2022-09-04T03:42:27.190Z,89.80
2022-09-04T03:42:58.742Z,89.80
2022-09-04T03:43:30.331Z,89.70
2022-09-04T03:44:01.831Z,89.80
2022-09-04T03:44:33.328Z,89.70
2022-09-04T03:45:04.837Z,89.70
2022-09-04T03:45:36.346Z,89.70
2022-09-04T03:46:07.909Z,89.70
2022-09-04T03:46:39.581Z,89.70
2022-09-04T03:47:11.116Z,89.70
2022-09-04T03:47:42.620Z,89.70
2022-09-04T03:48:15.563Z,89.70
2022-09-04T03:48:47.150Z,89.70
2022-09-04T03:49:18.661Z,89.70
2022-09-04T03:49:50.173Z,89.80
2022-09-04T03:50:21.676Z,89.70
2022-09-04T03:50:56.233Z,89.80
2022-09-04T03:51:27.737Z,89.80
2022-09-04T03:51:59.253Z,89.80
2022-09-04T03:52:30.761Z,89.70
2022-09-04T03:53:02.267Z,89.70
2022-09-04T03:53:33.781Z,89.80
2022-09-04T03:54:05.283Z,89.80
2022-09-04T03:54:36.787Z,89.80
2022-09-04T03:55:08.301Z,89.80
2022-09-04T03:55:39.814Z,89.80
2022-09-04T03:56:11.341Z,89.80
2022-09-04T03:56:42.860Z,89.70
2022-09-04T03:57:14.368Z,89.70
2022-09-04T03:57:45.898Z,89.80
2022-09-04T03:58:17.512Z,89.80
2022-09-04T03:58:49.089Z,89.80
2022-09-04T03:59:20.587Z,89.80
2022-09-04T03:59:52.084Z,89.80
2022-09-04T04:00:23.589Z,89.80
2022-09-04T04:00:55.199Z,89.80
2022-09-04T04:01:26.815Z,89.80
2022-09-04T04:01:58.332Z,89.80
2022-09-04T04:02:29.897Z,89.80
2022-09-04T04:03:01.571Z,89.80
2022-09-04T04:03:33.124Z,89.80
2022-09-04T04:04:04.620Z,89.80
2022-09-04T04:04:36.132Z,89.80
2022-09-04T04:05:07.649Z,89.80
2022-09-04T04:05:39.178Z,89.80
2022-09-04T04:06:10.676Z,89.80
2022-09-04T04:06:42.168Z,89.80
2022-09-04T04:07:13.704Z,89.80
2022-09-04T04:07:45.209Z,89.80
2022-09-04T04:08:16.712Z,89.80
2022-09-04T04:08:48.225Z,89.80
2022-09-04T04:09:19.728Z,90.00
2022-09-04T04:09:51.235Z,89.80
2022-09-04T04:10:22.758Z,89.80
2022-09-04T04:10:54.313Z,89.80
2022-09-04T04:11:25.817Z,89.80
2022-09-04T04:11:57.329Z,89.80
2022-09-04T04:12:28.832Z,89.80
2022-09-04T04:13:00.348Z,89.70
2022-09-04T04:13:31.868Z,89.80
2022-09-04T04:14:03.382Z,89.80
2022-09-04T04:14:34.884Z,89.70
2022-09-04T04:15:06.408Z,89.70
2022-09-04T04:15:37.963Z,89.80
2022-09-04T04:16:09.498Z,89.80
2022-09-04T04:16:41.101Z,89.80
2022-09-04T04:17:13.680Z,89.70
2022-09-04T04:17:46.362Z,89.60
2022-09-04T04:18:17.908Z,90.10
2022-09-04T04:18:49.454Z,89.70
2022-09-04T04:19:20.984Z,89.70
2022-09-04T04:19:52.497Z,89.60
2022-09-04T04:20:24.016Z,89.80
2022-09-04T04:20:55.521Z,89.70
2022-09-04T04:21:27.020Z,89.70
2022-09-04T04:21:58.532Z,89.70
2022-09-04T04:22:30.041Z,89.70
2022-09-04T04:23:01.542Z,89.70
2022-09-04T04:23:33.062Z,89.70
2022-09-04T04:24:04.560Z,89.70
2022-09-04T04:24:36.067Z,89.70
2022-09-04T04:25:07.569Z,89.70
2022-09-04T04:25:39.092Z,89.70
2022-09-04T04:26:10.604Z,89.70
2022-09-04T04:26:42.108Z,89.70
2022-09-04T04:27:13.641Z,89.70
2022-09-04T04:27:45.153Z,89.70
2022-09-04T04:28:16.671Z,89.70
2022-09-04T04:28:48.177Z,89.80
2022-09-04T04:29:19.689Z,89.70
2022-09-04T04:29:51.205Z,89.80
2022-09-04T04:30:22.711Z,89.80
2022-09-04T04:30:54.246Z,89.70
2022-09-04T04:31:25.791Z,89.70
2022-09-04T04:31:57.350Z,89.70
2022-09-04T04:32:28.971Z,89.70
2022-09-04T04:33:00.501Z,89.70
2022-09-04T04:33:32.009Z,89.70
2022-09-04T04:34:03.517Z,89.80
2022-09-04T04:34:35.049Z,89.80
2022-09-04T04:35:06.554Z,89.70
2022-09-04T04:35:38.086Z,89.70
2022-09-04T04:36:09.604Z,89.80
2022-09-04T04:36:41.100Z,89.80
2022-09-04T04:37:12.598Z,89.70
2022-09-04T04:37:44.096Z,89.70
2022-09-04T04:38:15.598Z,89.80
2022-09-04T04:38:47.098Z,89.70
2022-09-04T04:39:19.737Z,89.70
2022-09-04T04:39:51.405Z,89.70
2022-09-04T04:40:22.948Z,89.80
2022-09-04T04:40:54.468Z,89.80
2022-09-04T04:41:25.983Z,89.80
2022-09-04T04:41:57.489Z,89.80
2022-09-04T04:42:28.993Z,89.70
2022-09-04T04:43:00.522Z,89.70
2022-09-04T04:43:32.022Z,89.60
2022-09-04T04:44:03.519Z,90.00
2022-09-04T04:44:35.021Z,89.60
2022-09-04T04:45:06.518Z,89.70
2022-09-04T04:45:38.028Z,89.60
2022-09-04T04:46:09.586Z,89.70
2022-09-04T04:46:41.291Z,89.70
2022-09-04T04:47:12.850Z,89.70
2022-09-04T04:47:44.361Z,89.70
2022-09-04T04:48:15.870Z,89.70
2022-09-04T04:48:47.388Z,89.70
2022-09-04T04:49:18.887Z,89.70
2022-09-04T04:49:50.414Z,89.70
2022-09-04T04:50:21.934Z,89.70
2022-09-04T04:50:53.453Z,89.70
2022-09-04T04:51:24.947Z,89.70
2022-09-04T04:51:56.444Z,89.80
2022-09-04T04:52:27.939Z,89.70
2022-09-04T04:52:59.442Z,89.70
2022-09-04T04:53:30.950Z,89.70
2022-09-04T04:54:02.451Z,89.70
2022-09-04T04:54:33.965Z,89.70
2022-09-04T04:55:05.463Z,89.80
2022-09-04T04:55:36.964Z,89.70
2022-09-04T04:56:08.493Z,89.80
2022-09-04T04:56:40.024Z,89.70
2022-09-04T04:57:11.530Z,89.70
2022-09-04T04:57:43.053Z,89.80
2022-09-04T04:58:14.590Z,89.80
2022-09-04T04:58:46.104Z,89.80
2022-09-04T04:59:17.601Z,89.80
2022-09-04T04:59:49.113Z,89.80
2022-09-04T05:00:26.792Z,89.80
2022-09-04T05:00:59.142Z,89.90
2022-09-04T05:01:30.777Z,89.80
2022-09-04T05:02:02.432Z,89.90
2022-09-04T05:02:34.098Z,89.90
2022-09-04T05:03:05.735Z,89.90
2022-09-04T05:03:37.369Z,89.90
2022-09-04T05:04:08.878Z,89.80
2022-09-04T05:04:40.384Z,89.80
2022-09-04T05:05:11.890Z,89.90
2022-09-04T05:05:43.415Z,90.00
2022-09-04T05:06:14.916Z,90.00
2022-09-04T05:06:46.412Z,90.00
2022-09-04T05:07:18.545Z,90.00
2022-09-04T05:07:50.055Z,90.00
2022-09-04T05:08:21.556Z,90.00
2022-09-04T05:08:53.068Z,90.00
2022-09-04T05:09:24.595Z,90.00
2022-09-04T05:09:56.105Z,90.00
2022-09-04T05:10:27.601Z,90.00
2022-09-04T05:10:59.091Z,90.00
2022-09-04T05:11:30.616Z,89.90
2022-09-04T05:12:02.116Z,89.90
2022-09-04T05:12:33.607Z,89.80
2022-09-04T05:13:05.322Z,89.80
2022-09-04T05:13:36.824Z,89.80
2022-09-04T05:14:08.319Z,89.80
2022-09-04T05:14:39.823Z,89.80
2022-09-04T05:15:11.318Z,89.80
2022-09-04T05:15:58.485Z,89.80
2022-09-04T05:16:34.369Z,89.90
2022-09-04T05:17:05.936Z,89.90
2022-09-04T05:17:37.469Z,89.80
2022-09-04T05:18:09.344Z,89.70
2022-09-04T05:18:40.848Z,89.80
2022-09-04T05:19:12.365Z,89.70
2022-09-04T05:19:43.888Z,89.80
2022-09-04T05:20:15.388Z,89.90
2022-09-04T05:20:46.918Z,89.80
2022-09-04T05:21:18.429Z,89.70
2022-09-04T05:21:49.925Z,89.80
2022-09-04T05:22:21.438Z,89.90
2022-09-04T05:22:52.947Z,89.80
2022-09-04T05:23:24.853Z,89.80
2022-09-04T05:24:00.412Z,89.80
2022-09-04T05:24:31.950Z,89.80
2022-09-04T05:25:03.452Z,89.90
2022-09-04T05:25:34.944Z,89.90
2022-09-04T05:26:06.456Z,89.80
2022-09-04T05:26:37.980Z,90.00
2022-09-04T05:27:09.480Z,89.90
2022-09-04T05:27:40.977Z,89.90
2022-09-04T05:28:12.484Z,89.90
2022-09-04T05:28:43.989Z,89.90
2022-09-04T05:29:15.501Z,89.90
2022-09-04T05:29:47.014Z,90.00
2022-09-04T05:30:18.542Z,89.90
2022-09-04T05:30:50.121Z,89.80
2022-09-04T05:31:21.730Z,90.00
2022-09-04T05:31:53.253Z,90.00
2022-09-04T05:32:24.753Z,90.00
2022-09-04T05:32:56.266Z,90.00
2022-09-04T05:33:27.777Z,90.00
2022-09-04T05:33:59.297Z,90.00
2022-09-04T05:34:30.820Z,89.90
2022-09-04T05:35:02.323Z,90.00
2022-09-04T05:35:35.459Z,89.90
2022-09-04T05:36:07.248Z,89.90
2022-09-04T05:36:38.754Z,89.90
2022-09-04T05:37:10.384Z,90.00
2022-09-04T05:37:41.898Z,90.00
2022-09-04T05:38:13.454Z,89.90
2022-09-04T05:38:44.969Z,89.90
2022-09-04T05:39:16.507Z,89.90
2022-09-04T05:39:48.031Z,89.90
2022-09-04T05:40:21.119Z,89.90
2022-09-04T05:40:52.636Z,89.80
2022-09-04T05:41:24.135Z,89.80
2022-09-04T05:41:55.636Z,89.80
2022-09-04T05:42:27.132Z,89.80
2022-09-04T05:42:58.643Z,90.00
2022-09-04T05:43:30.146Z,90.00
2022-09-04T05:44:01.694Z,90.00
2022-09-04T05:44:33.206Z,90.00
2022-09-04T05:45:04.731Z,90.00
2022-09-04T05:45:36.238Z,89.80
2022-09-04T05:46:08.149Z,89.90
2022-09-04T05:46:39.847Z,89.80
2022-09-04T05:47:11.416Z,89.90
2022-09-04T05:47:43.001Z,90.00
2022-09-04T05:48:14.511Z,89.90
2022-09-04T05:48:46.028Z,89.90
2022-09-04T05:49:17.528Z,90.00
2022-09-04T05:49:49.029Z,89.90
2022-09-04T05:50:21.375Z,90.00
2022-09-04T05:50:53.413Z,90.00
2022-09-04T05:51:24.922Z,90.00
2022-09-04T05:51:56.434Z,90.00
2022-09-04T05:52:27.945Z,90.00
2022-09-04T05:52:59.454Z,90.00
2022-09-04T05:53:30.969Z,90.00
2022-09-04T05:54:02.481Z,90.00
2022-09-04T05:54:33.993Z,90.00
2022-09-04T05:55:05.488Z,90.00
2022-09-04T05:55:36.989Z,90.00
2022-09-04T05:56:08.508Z,90.00
2022-09-04T05:56:40.000Z,90.00
2022-09-04T05:57:11.503Z,90.00
2022-09-04T05:57:43.027Z,90.00
2022-09-04T05:58:14.532Z,90.00
2022-09-04T05:58:46.035Z,90.00
2022-09-04T05:59:17.534Z,90.00
2022-09-04T05:59:49.049Z,90.00
2022-09-04T06:00:20.562Z,90.00
2022-09-04T06:00:52.060Z,90.00
2022-09-04T06:01:23.691Z,90.00
2022-09-04T06:01:55.312Z,90.00
2022-09-04T06:02:27.001Z,90.00
2022-09-04T06:02:58.672Z,90.00
2022-09-04T06:03:30.204Z,90.00
2022-09-04T06:04:01.705Z,90.00
2022-09-04T06:04:33.205Z,90.00
2022-09-04T06:05:04.713Z,90.00
2022-09-04T06:05:36.226Z,90.00
2022-09-04T06:06:07.750Z,90.00
2022-09-04T06:06:39.268Z,90.00
2022-09-04T06:07:10.764Z,90.00
2022-09-04T06:07:42.265Z,90.00
2022-09-04T06:08:13.764Z,90.00
2022-09-04T06:08:45.270Z,90.00
2022-09-04T06:09:16.782Z,90.00
2022-09-04T06:09:48.301Z,90.00
2022-09-04T06:10:19.810Z,90.00
2022-09-04T06:10:51.340Z,90.00
2022-09-04T06:11:22.842Z,90.00
2022-09-04T06:11:54.345Z,90.00
2022-09-04T06:12:25.849Z,90.00
2022-09-04T06:12:57.348Z,90.00
2022-09-04T06:13:28.857Z,90.00
2022-09-04T06:14:00.364Z,90.00
2022-09-04T06:14:31.897Z,90.00
2022-09-04T06:15:03.424Z,90.00
2022-09-04T06:15:34.938Z,90.00
2022-09-04T06:16:06.517Z,90.10
2022-09-04T06:16:38.037Z,90.10
2022-09-04T06:17:09.539Z,90.10
2022-09-04T06:17:41.053Z,90.10
2022-09-04T06:18:12.563Z,90.10
2022-09-04T06:18:44.070Z,90.00
2022-09-04T06:19:15.576Z,90.10
2022-09-04T06:19:48.061Z,90.10
2022-09-04T06:20:19.565Z,90.10
2022-09-04T06:20:51.102Z,90.10
2022-09-04T06:21:22.603Z,90.10
2022-09-04T06:21:54.097Z,90.10
2022-09-04T06:22:25.608Z,90.10
2022-09-04T06:22:58.415Z,90.10
2022-09-04T06:23:32.713Z,90.10
2022-09-04T06:24:04.225Z,90.10
2022-09-04T06:24:35.733Z,90.10
2022-09-04T06:25:07.494Z,90.10
2022-09-04T06:25:40.865Z,90.10
2022-09-04T06:26:12.373Z,90.10
2022-09-04T06:26:43.882Z,90.10
2022-09-04T06:27:15.390Z,90.10
2022-09-04T06:27:46.905Z,90.10
2022-09-04T06:28:18.444Z,90.10
2022-09-04T06:28:49.957Z,90.10
2022-09-04T06:29:21.470Z,90.10
2022-09-04T06:29:52.973Z,90.20
2022-09-04T06:30:24.509Z,90.20
2022-09-04T06:30:56.026Z,90.10
2022-09-04T06:31:27.649Z,90.20
2022-09-04T06:31:59.188Z,90.20
2022-09-04T06:32:30.696Z,90.20
2022-09-04T06:33:02.205Z,90.10
2022-09-04T06:33:33.714Z,90.20
2022-09-04T06:34:05.227Z,90.20
2022-09-04T06:34:36.736Z,90.20
2022-09-04T06:35:08.273Z,90.20
2022-09-04T06:35:39.776Z,90.20
2022-09-04T06:36:13.976Z,90.20
2022-09-04T06:36:45.476Z,90.20
2022-09-04T06:37:16.985Z,90.20
2022-09-04T06:37:48.507Z,90.20
2022-09-04T06:38:20.059Z,90.20
2022-09-04T06:38:51.691Z,90.20
2022-09-04T06:39:23.253Z,90.20
2022-09-04T06:39:54.826Z,90.20
2022-09-04T06:40:26.369Z,90.20
2022-09-04T06:40:57.904Z,90.20
2022-09-04T06:41:29.411Z,90.20
2022-09-04T06:42:00.919Z,90.20
2022-09-04T06:42:32.424Z,90.20
2022-09-04T06:43:03.937Z,90.20
2022-09-04T06:43:35.435Z,90.20
2022-09-04T06:44:09.445Z,90.20
2022-09-04T06:44:40.970Z,90.20
2022-09-04T06:45:12.482Z,90.20
2022-09-04T06:45:43.998Z,90.20
2022-09-04T06:46:16.396Z,90.20
2022-09-04T06:46:48.114Z,90.20
2022-09-04T06:47:19.676Z,90.20
2022-09-04T06:47:51.168Z,90.20
2022-09-04T06:48:22.745Z,90.20
2022-09-04T06:48:54.409Z,90.30
2022-09-04T06:49:25.938Z,90.30